Time;durP1;ratioP1;P1;durP2;ratioP2;P2;SDS_P1;SDS_P2;PMS_P1;PMS_P2;Temp;Humidity;BMP_temperature;BMP_pressure;BME280_temperature;BME280_humidity;BME280_pressure;Samples;Min_cycle;Max_cycle;Signal;HPM_P1;HPM_P2
2022/02/07 00:02:22;;;;;;;;;;;3.10;83.30;;;1.54;87.19;94760.66;4929081;28;19918;-67
2022/02/07 00:04:48;;;;;;;;;;;2.80;84.70;;;1.45;88.90;94736.56;4958432;28;20459;-67
2022/02/07 00:07:18;;;;;;;;;;;2.70;85.40;;;1.38;88.34;94747.75;4936171;28;19918;-67
2022/02/07 00:09:44;;;;;;;;;;;2.60;85.70;;;1.38;88.23;94740.81;4939771;28;19918;-68
2022/02/07 00:12:10;;;;;;;;;;;2.80;85.40;;;1.36;88.49;94726.38;4947926;28;19923;-67
2022/02/07 00:14:36;;;;;;;;;;;2.70;85.80;;;1.32;88.00;94731.09;4933024;28;20015;-68
2022/02/07 00:17:01;;;;;;;;;;;2.70;85.40;;;1.32;89.26;94733.66;4945078;28;19922;-67
2022/02/07 00:19:28;;;;;;;;;;;2.70;85.30;;;1.28;88.96;94716.03;4959165;28;20382;-67
2022/02/07 00:21:56;;;;;;;;;;;2.70;85.40;;;1.28;88.20;94714.25;4937607;28;19961;-67
2022/02/07 00:24:21;;;;;;;;;;;2.70;84.80;;;1.23;88.45;94701.81;4949726;28;19922;-67
2022/02/07 00:26:47;;;;;;;;;;;2.70;85.20;;;1.19;88.80;94712.69;4921791;28;20326;-67
2022/02/07 00:29:14;;;;;;;;;;;2.60;85.60;;;1.14;89.26;94739.06;4932394;28;20192;-67
2022/02/07 00:31:40;;;;;;;;;;;2.60;85.70;;;1.13;89.18;94768.53;4931919;28;19923;-67
2022/02/07 00:34:05;;;;;;;;;;;2.50;86.20;;;1.10;89.63;94793.91;4942714;28;19922;-67
2022/02/07 00:36:32;;;;;;;;;;;2.50;86.60;;;1.07;90.19;94792.47;4928163;28;19929;-67
2022/02/07 00:39:05;;;;;;;;;;;2.50;86.90;;;1.05;91.30;94759.94;4937317;28;19927;-67
2022/02/07 00:41:44;;;;;;;;;;;2.40;87.20;;;1.05;90.47;94727.09;4941305;28;20332;-69
2022/02/07 00:44:14;;;;;;;;;;;2.50;86.90;;;1.06;90.80;94713.19;4920025;28;20438;-67
2022/02/07 00:46:48;;;;;;;;;;;2.60;86.90;;;1.08;90.19;94723.38;4918888;29;20137;-66
2022/02/07 00:49:14;;;;;;;;;;;2.60;86.90;;;1.13;90.48;94753.00;4940646;28;19926;-66
2022/02/07 00:51:40;;;;;;;;;;;2.70;86.40;;;1.15;90.68;94750.25;4920549;28;19923;-66
2022/02/07 00:54:05;;;;;;;;;;;2.70;86.50;;;1.14;90.57;94770.16;4904283;28;20314;-66
2022/02/07 00:56:31;;;;;;;;;;;2.60;86.50;;;1.13;91.29;94794.44;4969181;28;19918;-67
2022/02/07 00:58:56;;;;;;;;;;;2.70;86.60;;;1.16;90.87;94788.09;4949663;28;19929;-66
2022/02/07 01:01:27;;;;;;;;;;;2.80;86.30;;;1.14;90.88;94788.28;4945858;28;20028;-66
2022/02/07 01:03:53;;;;;;;;;;;2.60;86.50;;;1.14;90.90;94796.03;4935112;28;20569;-66
2022/02/07 01:06:20;;;;;;;;;;;2.70;86.50;;;1.14;91.40;94808.19;4934185;28;19934;-66
2022/02/07 01:08:50;;;;;;;;;;;2.70;86.50;;;1.16;90.73;94822.59;4905627;28;20025;-66
2022/02/07 01:47:10;;;;;;;;;;;2.40;86.90;;;0.87;91.67;94936.13;4949846;28;20017;-67
2022/02/07 01:55:07;;;;;;;;;;;2.20;87.30;;;0.81;92.13;94985.94;4930299;28;20359;-67
2022/02/07 01:57:32;;;;;;;;;;;2.30;87.60;;;0.80;91.75;94992.09;4961809;28;20382;-67
2022/02/07 01:59:58;;;;;;;;;;;2.30;87.50;;;0.82;92.58;94983.19;4948339;28;19973;-67
2022/02/07 02:02:24;;;;;;;;;;;2.50;86.80;;;0.85;90.82;94975.09;4960100;28;20269;-67
2022/02/07 02:04:50;;;;;;;;;;;2.40;86.50;;;0.81;91.53;94991.91;4961507;28;19922;-67
2022/02/07 02:07:16;;;;;;;;;;;2.40;87.10;;;0.80;92.76;95002.44;4926751;28;19926;-67
2022/02/07 02:09:42;;;;;;;;;;;2.30;87.40;;;0.79;92.32;95018.94;4932389;28;19922;-67
2022/02/07 02:12:08;;;;;;;;;;;2.30;87.20;;;0.79;92.63;95034.47;4928027;28;19930;-67
2022/02/07 02:22:51;;;;;;;;;;;2.20;87.50;;;0.80;92.99;95033.50;4937346;28;20436;-67
2022/02/07 02:45:28;;;;;;;;;;;2.40;87.00;;;0.78;92.04;95087.19;4907752;29;20393;-67
2022/02/07 02:46:51;;;;;;;;;;;2.30;87.30;;;0.79;92.66;95092.22;4932771;28;19948;-67
2022/02/07 02:49:17;;;;;;;;;;;2.40;87.00;;;0.80;91.92;95104.19;4971838;28;19922;-67
2022/02/07 02:51:43;;;;;;;;;;;2.40;87.10;;;0.80;92.61;95103.38;4938220;28;19998;-67
2022/02/07 02:54:09;;;;;;;;;;;2.30;87.20;;;0.80;91.55;95108.56;4926696;28;19923;-67
2022/02/07 02:56:35;;;;;;;;;;;2.40;86.90;;;0.79;92.09;95119.88;4929581;28;19918;-67
2022/02/07 02:59:00;;;;;;;;;;;2.30;87.00;;;0.78;91.79;95115.66;4940571;28;19966;-68
2022/02/07 03:01:26;;;;;;;;;;;2.30;87.00;;;0.77;91.65;95119.22;4948650;28;19918;-67
2022/02/07 03:03:52;;;;;;;;;;;2.30;86.70;;;0.79;91.22;95138.81;4924078;29;20366;-67
2022/02/07 03:06:18;;;;;;;;;;;2.30;86.60;;;0.79;91.14;95153.53;4965647;28;20266;-67
2022/02/07 03:08:43;;;;;;;;;;;2.40;86.30;;;0.81;91.32;95167.13;4947946;28;19926;-67
2022/02/07 03:11:13;;;;;;;;;;;2.40;85.60;;;0.83;91.43;95188.47;4931552;28;20032;-67
2022/02/07 03:13:51;;;;;;;;;;;2.40;85.80;;;0.82;90.53;95199.81;4943658;28;19918;-68
2022/02/07 03:16:37;;;;;;;;;;;2.40;85.60;;;0.82;90.91;95195.44;4947720;28;20366;-67
2022/02/07 03:19:12;;;;;;;;;;;2.40;85.90;;;0.82;91.35;95205.78;4944595;23;19919;-68
2022/02/07 03:21:38;;;;;;;;;;;2.40;86.00;;;0.83;92.15;95206.59;4939353;28;19930;-68
2022/02/07 03:24:05;;;;;;;;;;;2.40;85.80;;;0.82;90.83;95212.75;4945073;28;19923;-68
2022/02/07 03:26:36;;;;;;;;;;;2.30;85.70;;;0.78;91.25;95219.19;4948930;28;19930;-68
2022/02/07 03:29:02;;;;;;;;;;;2.40;85.90;;;0.81;91.09;95226.66;4977764;28;19922;-67
2022/02/07 03:31:27;;;;;;;;;;;2.40;85.60;;;0.80;91.29;95218.06;4951909;28;20301;-68
2022/02/07 03:33:53;;;;;;;;;;;2.40;85.80;;;0.81;90.62;95221.47;4939718;28;19931;-68
2022/02/07 03:36:19;;;;;;;;;;;2.40;85.60;;;0.83;91.73;95237.66;4945871;28;19918;-69
2022/02/07 03:38:45;;;;;;;;;;;2.40;85.80;;;0.86;91.08;95258.06;4949046;28;19925;-68
2022/02/07 03:41:11;;;;;;;;;;;2.40;85.40;;;0.87;91.42;95264.88;4947431;28;19919;-67
2022/02/07 03:43:36;;;;;;;;;;;2.40;85.60;;;0.87;91.17;95276.03;4947487;28;20396;-68
2022/02/07 03:46:02;;;;;;;;;;;2.40;85.50;;;0.85;90.98;95266.81;4946517;28;19989;-67
2022/02/07 03:48:28;;;;;;;;;;;2.40;85.40;;;0.88;90.62;95300.16;4947261;28;19926;-67
2022/02/07 03:50:54;;;;;;;;;;;2.40;85.60;;;0.89;89.99;95309.53;4949717;28;20005;-68
2022/02/07 03:53:19;;;;;;;;;;;2.50;85.50;;;0.88;91.39;95318.28;4951040;28;19929;-67
2022/02/07 03:55:45;;;;;;;;;;;2.40;85.50;;;0.90;90.86;95321.53;4946209;28;19949;-70
2022/02/07 03:58:11;;;;;;;;;;;2.40;85.50;;;0.90;91.16;95330.09;4948667;28;19973;-70
2022/02/07 04:00:37;;;;;;;;;;;2.40;85.60;;;0.91;91.20;95328.34;4960677;28;20410;-68
2022/02/07 04:03:06;;;;;;;;;;;2.40;85.50;;;0.90;90.63;95339.66;4946492;28;19937;-70
2022/02/07 04:05:49;;;;;;;;;;;2.40;85.40;;;0.90;90.59;95360.34;4918537;28;19922;-68
2022/02/07 04:08:16;;;;;;;;;;;2.40;85.40;;;0.89;90.64;95359.53;4964697;28;19926;-68
2022/02/07 04:11:09;;;;;;;;;;;2.40;85.10;;;0.91;90.48;95380.13;4967576;28;19976;-68
2022/02/07 04:13:33;;;;;;;;;;;2.40;85.10;;;0.88;90.21;95380.41;4953006;28;19922;-67
2022/02/07 04:16:00;;;;;;;;;;;2.40;84.80;;;0.89;89.88;95394.97;4935319;28;19918;-68
2022/02/07 04:18:28;;;;;;;;;;;2.40;84.80;;;0.89;89.54;95403.56;4951050;28;19960;-67
2022/02/07 04:20:54;;;;;;;;;;;2.40;85.10;;;0.88;90.67;95414.88;4947380;28;19942;-68
2022/02/07 04:23:20;;;;;;;;;;;2.40;85.40;;;0.89;90.23;95413.09;4951734;28;20330;-68
2022/02/07 04:25:45;;;;;;;;;;;2.40;85.10;;;0.88;90.52;95419.25;4935361;29;19922;-68
2022/02/07 04:28:11;;;;;;;;;;;2.40;84.90;;;0.86;90.82;95419.38;4932685;28;19922;-68
2022/02/07 04:30:37;;;;;;;;;;;2.40;84.90;;;0.84;90.26;95434.25;4932747;28;19986;-68
2022/02/07 04:33:02;;;;;;;;;;;2.40;84.60;;;0.83;90.25;95445.56;4950165;28;19922;-67
2022/02/07 04:35:28;;;;;;;;;;;2.30;84.50;;;0.82;90.37;95443.13;4931380;28;19918;-67
2022/02/07 04:37:54;;;;;;;;;;;2.40;84.40;;;0.79;90.29;95440.84;4934506;28;20262;-66
2022/02/07 04:40:19;;;;;;;;;;;2.30;84.60;;;0.78;89.95;95446.97;4934858;28;20330;-67
2022/02/07 04:42:45;;;;;;;;;;;2.30;84.60;;;0.72;90.33;95443.19;4952149;28;19922;-67
2022/02/07 04:50:43;;;;;;;;;;;2.30;84.50;;;0.66;89.94;95466.22;4950591;28;19922;-67
2022/02/07 04:53:19;;;;;;;;;;;2.20;84.50;;;0.64;90.39;95470.72;4952010;28;19951;-66
2022/02/07 04:56:15;;;;;;;;;;;2.20;84.70;;;0.60;90.12;95470.22;4943040;28;19927;-68
2022/02/07 04:58:57;;;;;;;;;;;2.20;84.80;;;0.59;91.04;95477.16;4932070;28;20354;-67
2022/02/07 05:01:41;;;;;;;;;;;2.20;85.00;;;0.58;89.93;95488.47;4933225;28;19941;-69
2022/02/07 05:04:19;;;;;;;;;;;2.10;85.00;;;0.56;90.88;95495.56;4936450;28;19936;-69
2022/02/07 05:14:59;;;;;;;;;;;2.30;84.40;;;0.65;90.58;95534.47;4949852;28;19933;-64
2022/02/07 05:17:26;;;;;;;;;;;2.30;84.30;;;0.64;89.94;95549.19;4951593;28;19922;-65
2022/02/07 05:19:51;;;;;;;;;;;2.30;84.20;;;0.70;90.00;95553.00;4949293;28;19973;-66
2022/02/07 05:22:17;;;;;;;;;;;2.40;83.60;;;0.69;88.61;95572.09;4965035;28;19922;-71
2022/02/07 05:24:43;;;;;;;;;;;2.30;83.50;;;0.71;88.82;95577.94;4949087;28;19918;-72
2022/02/07 05:27:08;;;;;;;;;;;2.30;83.80;;;0.72;89.07;95572.59;4948628;28;20445;-65
2022/02/07 05:29:34;;;;;;;;;;;2.40;83.70;;;0.75;89.00;95577.50;4946420;28;19915;-64
2022/02/07 05:32:02;;;;;;;;;;;2.30;83.20;;;0.76;88.57;95594.66;4954108;28;19918;-66
2022/02/07 05:34:27;;;;;;;;;;;2.40;82.70;;;0.78;88.21;95612.63;4955378;28;20293;-65
2022/02/07 05:36:56;;;;;;;;;;;2.40;82.60;;;0.79;87.50;95628.03;4964046;28;19984;-65
2022/02/07 05:39:22;;;;;;;;;;;2.40;82.30;;;0.78;87.66;95633.34;4956996;28;19918;-65
2022/02/07 05:41:47;;;;;;;;;;;2.30;82.50;;;0.79;87.81;95637.56;4955274;28;19922;-65
2022/02/07 05:44:14;;;;;;;;;;;2.30;82.20;;;0.76;87.28;95645.63;4951187;28;19918;-65
2022/02/07 05:46:39;;;;;;;;;;;2.30;82.30;;;0.77;87.57;95655.00;4966134;28;19942;-65
2022/02/07 05:49:05;;;;;;;;;;;2.40;82.00;;;0.80;86.68;95660.72;4965468;28;20247;-64
2022/02/07 05:51:31;;;;;;;;;;;2.40;81.10;;;0.79;86.95;95676.41;4965898;28;19927;-64
2022/02/07 05:53:56;;;;;;;;;;;2.40;81.60;;;0.79;85.52;95681.56;4949608;29;19918;-64
2022/02/07 05:56:22;;;;;;;;;;;2.40;80.70;;;0.78;86.23;95695.47;4950840;28;20243;-64
2022/02/07 05:58:48;;;;;;;;;;;2.40;81.20;;;0.79;86.59;95697.09;4961107;28;19918;-65
2022/02/07 06:01:13;;;;;;;;;;;2.40;81.00;;;0.79;86.73;95703.09;4976356;28;19984;-66
2022/02/07 06:03:39;;;;;;;;;;;2.50;81.60;;;0.81;86.96;95710.72;4985454;28;19921;-65
2022/02/07 06:06:05;;;;;;;;;;;2.60;81.30;;;0.80;85.67;95717.69;4946698;28;19946;-65
2022/02/07 06:08:32;;;;;;;;;;;2.50;80.20;;;0.78;85.43;95721.34;4968067;28;20020;-65
2022/02/07 06:11:06;;;;;;;;;;;2.40;80.60;;;0.75;86.05;95742.34;4962484;28;19918;-65
2022/02/07 06:13:32;;;;;;;;;;;2.40;80.30;;;0.74;85.83;95751.88;4934705;29;20374;-66
2022/02/07 06:15:57;;;;;;;;;;;2.30;80.10;;;0.71;85.77;95762.53;4950811;28;20033;-65
2022/02/07 06:18:23;;;;;;;;;;;2.40;80.30;;;0.67;84.77;95765.50;4951017;28;19915;-65
2022/02/07 06:20:51;;;;;;;;;;;2.10;80.40;;;0.63;86.03;95764.94;4898252;28;1057496;-65
2022/02/07 06:23:17;;;;;;;;;;;2.20;80.40;;;0.60;85.88;95773.81;4951484;28;20584;-66
2022/02/07 06:25:43;;;;;;;;;;;2.10;80.90;;;0.56;86.55;95781.97;4950475;28;19915;-65
2022/02/07 06:28:08;;;;;;;;;;;2.10;81.10;;;0.52;86.57;95789.19;4953129;28;20405;-65
2022/02/07 06:30:34;;;;;;;;;;;2.10;81.60;;;0.49;86.97;95794.66;4967082;28;19914;-65
2022/02/07 06:33:00;;;;;;;;;;;2.00;82.00;;;0.47;86.63;95812.09;4934153;28;19914;-65
2022/02/07 06:35:25;;;;;;;;;;;2.00;81.80;;;0.46;86.51;95818.22;4950674;28;19914;-64
2022/02/07 06:37:51;;;;;;;;;;;2.00;82.00;;;0.44;87.07;95822.66;4950580;28;19926;-65
2022/02/07 06:40:17;;;;;;;;;;;2.00;82.10;;;0.47;86.66;95827.59;4950494;28;20290;-65
2022/02/07 06:42:42;;;;;;;;;;;2.10;81.70;;;0.50;87.08;95835.09;4950134;28;20255;-65
2022/02/07 06:45:09;;;;;;;;;;;2.10;81.60;;;0.52;85.39;95845.31;4950859;28;19933;-65
2022/02/07 06:47:34;;;;;;;;;;;2.10;81.40;;;0.50;85.56;95853.22;4934343;28;19921;-65
2022/02/07 06:50:00;;;;;;;;;;;2.10;80.70;;;0.51;85.83;95859.22;4950011;28;19918;-65
2022/02/07 06:52:25;;;;;;;;;;;2.10;80.50;;;0.51;85.56;95867.78;4934057;29;19922;-65
2022/02/07 06:54:51;;;;;;;;;;;2.10;80.40;;;0.54;86.07;95870.09;4933698;29;19915;-65
2022/02/07 06:57:20;;;;;;;;;;;2.10;80.10;;;0.53;84.98;95872.81;4951211;28;19933;-66
2022/02/07 06:59:47;;;;;;;;;;;2.10;79.50;;;0.55;84.71;95887.25;4949894;28;19967;-65
2022/02/07 07:02:13;;;;;;;;;;;2.20;79.40;;;0.55;84.01;95902.78;4934143;28;19925;-65
2022/02/07 07:04:38;;;;;;;;;;;2.20;78.90;;;0.58;84.36;95906.88;4950096;28;19915;-65
2022/02/07 07:07:04;;;;;;;;;;;2.20;78.90;;;0.59;83.16;95917.09;4933216;28;20406;-65
2022/02/07 07:09:32;;;;;;;;;;;2.20;78.50;;;0.61;83.51;95920.38;4950213;28;19915;-64
2022/02/07 07:12:03;;;;;;;;;;;2.30;78.50;;;0.63;83.40;95919.41;4950860;28;19923;-65
2022/02/07 07:14:39;;;;;;;;;;;2.30;78.10;;;0.66;83.27;95926.91;4968977;28;20386;-65
2022/02/07 07:17:05;;;;;;;;;;;2.30;78.10;;;0.67;83.27;95936.31;4967643;28;20370;-64
2022/02/07 07:19:30;;;;;;;;;;;2.40;78.30;;;0.68;83.64;95948.31;4953662;28;20467;-65
2022/02/07 07:21:56;;;;;;;;;;;2.40;78.50;;;0.69;83.64;95949.97;4953528;28;19922;-65
2022/02/07 07:24:22;;;;;;;;;;;2.40;78.40;;;0.69;83.51;95953.38;4937400;29;19940;-65
2022/02/07 07:26:47;;;;;;;;;;;2.40;78.20;;;0.73;83.79;95957.34;4937459;29;20354;-65
2022/02/07 07:29:18;;;;;;;;;;;2.60;78.10;;;0.81;83.36;95969.63;4952826;28;19925;-64
2022/02/07 07:31:48;;;;;;;;;;;2.60;77.80;;;0.84;83.44;95959.00;4953482;28;19918;-65
2022/02/07 07:34:16;;;;;;;;;;;2.70;77.40;;;0.93;82.75;95963.38;4953503;28;20389;-65
2022/02/07 07:36:43;;;;;;;;;;;2.80;77.10;;;0.97;82.25;95964.75;4952930;28;19914;-64
2022/02/07 07:39:10;;;;;;;;;;;2.80;76.90;;;0.99;82.54;95975.81;4953939;28;19930;-64
2022/02/07 07:41:35;;;;;;;;;;;2.90;77.00;;;1.02;82.93;95988.47;4937359;28;19997;-64
2022/02/07 07:44:01;;;;;;;;;;;3.00;76.30;;;1.08;82.70;96003.47;4969276;28;20394;-64
2022/02/07 07:46:29;;;;;;;;;;;3.10;76.00;;;1.16;82.43;95990.69;4954060;28;19980;-65
2022/02/07 07:49:09;;;;;;;;;;;3.50;74.80;;;1.37;81.98;95997.56;4937375;29;19918;-65
2022/02/07 07:51:45;;;;;;;;;;;4.00;72.80;;;1.54;81.84;96000.28;4952886;28;20359;-65
2022/02/07 08:02:19;;;;;;;;;;;3.60;72.30;;;1.76;78.93;96025.13;4966946;28;20079;-65
2022/02/07 08:04:46;;;;;;;;;;;3.40;72.60;;;1.75;79.34;96028.66;4952793;29;19926;-65
2022/02/07 08:07:25;;;;;;;;;;;3.50;73.10;;;1.75;79.30;96035.63;4967915;28;19926;-66
2022/02/07 08:12:26;;;;;;;;;;;3.40;73.00;;;1.65;79.11;96042.59;4938291;29;20358;-66
2022/02/07 08:14:52;;;;;;;;;;;3.20;73.40;;;1.59;79.19;96056.91;4936697;29;19951;-65
2022/02/07 08:17:21;;;;;;;;;;;3.10;73.40;;;1.56;79.53;96049.38;4952983;28;19919;-65
2022/02/07 08:19:48;;;;;;;;;;;3.20;73.70;;;1.57;78.86;96057.97;4952606;28;19918;-65
2022/02/07 08:22:13;;;;;;;;;;;3.20;73.40;;;1.53;78.93;96060.84;4952372;28;19918;-65
2022/02/07 08:24:40;;;;;;;;;;;3.10;73.40;;;1.51;79.40;96072.31;4952698;28;19920;-65
2022/02/07 08:27:06;;;;;;;;;;;3.10;73.30;;;1.50;79.96;96075.84;4953088;28;19914;-65
2022/02/07 08:29:31;;;;;;;;;;;3.20;73.60;;;1.53;79.45;96080.75;4952445;28;20030;-65
2022/02/07 08:31:57;;;;;;;;;;;3.20;73.70;;;1.53;79.43;96096.31;4953535;28;19959;-65
2022/02/07 08:34:23;;;;;;;;;;;3.30;73.70;;;1.57;79.32;96096.88;4936406;29;19915;-66
2022/02/07 08:36:49;;;;;;;;;;;3.20;73.60;;;1.54;79.77;96111.72;4952155;28;19976;-65
2022/02/07 08:39:14;;;;;;;;;;;3.10;74.30;;;1.54;80.31;96123.88;4951798;28;19929;-65
2022/02/07 08:41:40;;;;;;;;;;;3.30;74.60;;;1.54;79.56;96123.88;4953459;28;19920;-65
2022/02/07 08:44:05;;;;;;;;;;;3.20;74.40;;;1.53;80.19;96132.59;4951602;28;19944;-65
2022/02/07 08:46:31;;;;;;;;;;;3.20;74.30;;;1.53;80.55;96138.59;4952180;28;19925;-65
2022/02/07 08:48:58;;;;;;;;;;;3.20;74.60;;;1.52;80.54;96130.97;4952124;28;19933;-65
2022/02/07 08:51:24;;;;;;;;;;;3.30;74.80;;;1.58;79.89;96139.97;4951340;28;19957;-66
2022/02/07 08:53:50;;;;;;;;;;;3.40;74.10;;;1.57;80.59;96149.53;4951715;28;19961;-66
2022/02/07 08:56:19;;;;;;;;;;;3.30;74.40;;;1.57;80.17;96154.72;4948361;28;19925;-65
2022/02/07 08:58:47;;;;;;;;;;;3.40;74.20;;;1.59;80.34;96146.84;4963216;28;19953;-65
2022/02/07 09:01:25;;;;;;;;;;;3.40;74.40;;;1.61;80.34;96158.72;4947399;28;20018;-65
2022/02/07 09:06:38;;;;;;;;;;;3.40;74.40;;;1.69;80.44;96174.41;4952336;28;19922;-65
2022/02/07 09:09:09;;;;;;;;;;;3.50;74.30;;;1.74;80.34;96172.22;4952429;28;19921;-65
2022/02/07 09:11:35;;;;;;;;;;;3.90;73.60;;;1.89;81.04;96182.25;4936362;29;19922;-65
2022/02/07 09:14:08;;;;;;;;;;;4.50;72.60;;;2.06;80.12;96181.59;4952608;28;19918;-65
2022/02/07 09:16:35;;;;;;;;;;;4.60;70.60;;;2.28;79.10;96180.53;4951530;28;19915;-66
2022/02/07 09:19:01;;;;;;;;;;;4.90;69.00;;;2.42;79.22;96193.09;4950891;28;20383;-67
2022/02/07 09:21:28;;;;;;;;;;;5.00;69.60;;;2.62;78.24;96197.31;4935459;29;20034;-66
2022/02/07 09:23:54;;;;;;;;;;;5.60;66.40;;;2.81;76.92;96193.91;4935476;28;19914;-66
2022/02/07 09:26:20;;;;;;;;;;;5.30;66.40;;;2.87;76.92;96203.72;4935393;28;19915;-66
2022/02/07 09:28:46;;;;;;;;;;;5.00;67.50;;;2.83;76.29;96201.56;4951654;28;19914;-66
2022/02/07 09:31:12;;;;;;;;;;;4.50;68.70;;;2.75;76.00;96217.84;4952119;28;20352;-66
2022/02/07 09:33:38;;;;;;;;;;;4.40;69.00;;;2.65;76.19;96209.22;4931956;28;20499;-66
2022/02/07 09:36:04;;;;;;;;;;;4.20;70.00;;;2.57;76.59;96222.06;4932790;28;19914;-65
2022/02/07 09:38:31;;;;;;;;;;;4.10;70.60;;;2.47;76.84;96220.28;4949963;28;19918;-65
2022/02/07 09:40:58;;;;;;;;;;;4.10;70.80;;;2.41;77.35;96238.19;4951080;28;20174;-66
2022/02/07 09:43:29;;;;;;;;;;;4.00;71.20;;;2.38;77.45;96234.06;4934885;28;20409;-65
2022/02/07 09:46:04;;;;;;;;;;;4.10;71.60;;;2.29;76.96;96245.28;4950694;28;19919;-66
2022/02/07 09:48:30;;;;;;;;;;;3.90;71.50;;;2.26;77.47;96255.91;4936407;29;19968;-65
2022/02/07 09:50:56;;;;;;;;;;;3.80;71.90;;;2.21;77.39;96271.06;4950735;28;20390;-65
2022/02/07 09:53:22;;;;;;;;;;;3.80;71.70;;;2.15;77.52;96269.00;4951606;28;20278;-65
2022/02/07 09:55:48;;;;;;;;;;;3.80;72.10;;;2.11;77.69;96278.00;4950540;28;19918;-65
2022/02/07 09:58:15;;;;;;;;;;;3.60;72.90;;;2.03;77.98;96275.22;4951771;28;19918;-65
2022/02/07 10:00:41;;;;;;;;;;;3.60;72.50;;;2.02;77.53;96276.19;4950358;29;20375;-66
2022/02/07 10:03:15;;;;;;;;;;;3.60;71.90;;;1.97;77.97;96280.97;4951517;28;19920;-65
2022/02/07 10:05:48;;;;;;;;;;;3.60;72.70;;;1.94;78.53;96287.22;4935672;29;19949;-65
2022/02/07 10:09:14;;;;;;;;;;;3.60;73.30;;;1.93;78.68;96289.97;4965739;28;19919;-65
2022/02/07 10:19:10;;;;;;;;;;;3.60;73.40;;;1.84;78.97;96317.50;4952335;28;19914;-65
2022/02/07 10:22:05;;;;;;;;;;;3.50;73.50;;;1.84;79.42;96320.94;4950688;28;19918;-65
2022/02/07 10:38:16;;;;;;;;;;;4.00;72.10;;;2.06;78.52;96347.66;4951129;28;19919;-66
2022/02/07 10:41:38;;;;;;;;;;;4.10;71.80;;;2.15;78.52;96352.84;4962228;28;19915;-65
2022/02/07 10:46:11;;;;;;;;;;;4.80;69.40;;;2.44;78.25;96345.16;4931420;28;19914;-65
2022/02/07 10:48:51;;;;;;;;;;;4.80;70.10;;;2.77;77.13;96348.38;4954366;28;20017;-65
2022/02/07 10:51:21;;;;;;;;;;;5.70;65.90;;;3.07;76.20;96358.66;4938602;28;19931;-65
2022/02/07 10:53:55;;;;;;;;;;;6.10;63.50;;;3.22;75.89;96350.47;4955643;28;20405;-65
2022/02/07 10:56:30;;;;;;;;;;;5.90;64.70;;;3.31;75.82;96353.06;4954108;28;20071;-65
2022/02/07 10:58:57;;;;;;;;;;;5.60;66.30;;;3.29;75.22;96359.34;4939684;29;19918;-65
2022/02/07 11:04:25;;;;;;;;;;;5.00;68.20;;;3.14;75.74;96381.50;4952823;28;19925;-65
2022/02/07 11:06:57;;;;;;;;;;;4.70;69.30;;;3.04;76.15;96382.31;4955268;28;20798;-65
2022/02/07 11:09:28;;;;;;;;;;;4.70;70.20;;;2.99;76.52;96384.50;4938897;28;20386;-66
2022/02/07 11:12:45;;;;;;;;;;;4.60;70.30;;;2.93;76.37;96379.84;4954218;28;19918;-65
2022/02/07 11:15:33;;;;;;;;;;;4.50;70.60;;;2.83;76.43;96384.22;4957192;28;19922;-65
2022/02/07 11:21:05;;;;;;;;;;;4.40;71.30;;;2.77;76.71;96395.16;4953906;28;19918;-65
2022/02/07 11:24:13;;;;;;;;;;;4.50;70.50;;;2.73;76.83;96415.38;4955390;28;19936;-65
2022/02/07 11:26:30;;;;;;;;;;;4.40;70.70;;;2.67;76.55;96399.47;4953350;28;19941;-65
2022/02/07 11:28:56;;;;;;;;;;;4.30;70.90;;;2.67;76.90;96415.06;4938467;29;19965;-65
2022/02/07 11:31:29;;;;;;;;;;;4.30;71.10;;;2.65;76.55;96415.19;4954623;28;19925;-65
2022/02/07 11:34:01;;;;;;;;;;;4.40;70.70;;;2.66;76.65;96424.63;4937750;28;19914;-65
2022/02/07 11:36:28;;;;;;;;;;;4.40;70.10;;;2.71;76.27;96421.63;4968854;28;19914;-65
2022/02/07 11:38:57;;;;;;;;;;;4.50;69.80;;;2.77;76.88;96426.31;4969400;28;20001;-64
2022/02/07 11:41:22;;;;;;;;;;;4.60;70.00;;;2.85;76.74;96430.84;4953416;28;20009;-65
2022/02/07 11:43:48;;;;;;;;;;;4.90;69.80;;;2.92;76.01;96429.34;4937819;28;19918;-65
2022/02/07 11:46:14;;;;;;;;;;;4.90;69.10;;;2.95;76.44;96434.28;4953281;28;19918;-65
2022/02/07 11:48:50;;;;;;;;;;;4.70;69.50;;;2.97;76.65;96435.81;4949868;28;19930;-65
2022/02/07 11:51:24;;;;;;;;;;;4.70;70.10;;;3.01;76.20;96444.97;4949197;28;20292;-65
2022/02/07 11:54:06;;;;;;;;;;;4.70;69.90;;;3.04;76.07;96449.91;4950400;28;19924;-65
2022/02/07 11:59:12;;;;;;;;;;;5.10;68.50;;;3.18;76.34;96455.69;4968453;28;19961;-67
2022/02/07 12:01:53;;;;;;;;;;;5.10;68.80;;;3.21;75.67;96460.59;4949380;28;19970;-65
2022/02/07 12:04:26;;;;;;;;;;;5.00;69.10;;;3.16;75.47;96470.56;4934644;28;19946;-65
2022/02/07 12:07:21;;;;;;;;;;;4.80;69.40;;;3.09;75.92;96465.06;4954512;28;19953;-65
2022/02/07 12:10:01;;;;;;;;;;;4.60;70.20;;;3.08;76.17;96469.47;4933460;29;19919;-65
2022/02/07 12:12:51;;;;;;;;;;;4.70;69.80;;;3.10;75.78;96478.91;4935124;28;19926;-64
2022/02/07 12:15:37;;;;;;;;;;;4.80;69.60;;;3.08;75.79;96473.84;4942343;28;20350;-64
2022/02/07 12:18:12;;;;;;;;;;;4.70;70.00;;;3.02;75.67;96483.00;4954173;28;20378;-63
2022/02/07 12:20:37;;;;;;;;;;;4.50;70.40;;;2.90;75.96;96484.03;4954044;28;19946;-63
2022/02/07 12:23:10;;;;;;;;;;;4.40;70.90;;;2.89;75.69;96491.97;4952071;28;19914;-64
2022/02/07 12:25:44;;;;;;;;;;;4.40;70.50;;;2.85;76.35;96501.81;4949252;28;20386;-64
2022/02/07 12:28:18;;;;;;;;;;;4.40;71.20;;;2.82;76.68;96511.63;4933363;28;19914;-65
2022/02/07 12:33:09;;;;;;;;;;;4.30;71.20;;;2.74;76.66;96505.31;4934285;28;20024;-65
2022/02/07 12:35:35;;;;;;;;;;;4.40;71.00;;;2.69;75.98;96511.84;4952213;28;19992;-64
2022/02/07 12:38:01;;;;;;;;;;;4.20;70.80;;;2.63;76.27;96518.38;4952430;28;20279;-64
2022/02/07 12:40:26;;;;;;;;;;;4.10;71.80;;;2.57;76.61;96524.09;4936547;29;19924;-63
2022/02/07 12:42:52;;;;;;;;;;;4.10;71.90;;;2.57;77.07;96528.47;4936523;29;20335;-63
2022/02/07 12:45:25;;;;;;;;;;;4.10;72.40;;;2.54;77.30;96533.94;4951456;28;20009;-64
2022/02/07 12:47:56;;;;;;;;;;;4.10;72.60;;;2.54;76.80;96544.31;4952510;28;20397;-63
2022/02/07 12:50:22;;;;;;;;;;;4.10;72.30;;;2.49;77.24;96546.44;4937247;29;19914;-64
2022/02/07 12:52:48;;;;;;;;;;;4.10;72.10;;;2.43;76.72;96540.00;4936606;28;19922;-64
2022/02/07 12:55:16;;;;;;;;;;;3.90;72.30;;;2.42;77.03;96546.97;4950836;28;20050;-64
2022/02/07 12:57:42;;;;;;;;;;;4.00;72.10;;;2.41;77.17;96539.31;4952812;28;19925;-64
2022/02/07 13:00:12;;;;;;;;;;;3.90;72.50;;;2.36;77.39;96536.28;4950690;28;19937;-64
2022/02/07 13:02:41;;;;;;;;;;;3.80;72.80;;;2.34;77.68;96551.16;4947387;28;20322;-64
2022/02/07 13:05:10;;;;;;;;;;;3.80;72.90;;;2.32;78.02;96538.31;4951437;28;19969;-64
2022/02/07 13:07:43;;;;;;;;;;;3.90;73.00;;;2.32;77.97;96546.09;4952072;28;20271;-64
2022/02/07 13:10:12;;;;;;;;;;;3.90;73.00;;;2.32;77.87;96559.09;4936080;28;19969;-64
2022/02/07 13:15:29;;;;;;;;;;;4.00;73.10;;;2.32;78.17;96556.47;4951290;28;19987;-64
2022/02/07 13:17:58;;;;;;;;;;;3.90;72.90;;;2.28;78.37;96557.69;4951808;28;19977;-64
2022/02/07 13:20:24;;;;;;;;;;;3.80;73.60;;;2.29;78.89;96561.94;4952850;28;19918;-64
2022/02/07 13:23:14;;;;;;;;;;;3.80;73.50;;;2.27;78.27;96563.84;4953292;28;19915;-64
2022/02/07 13:25:44;;;;;;;;;;;3.80;73.80;;;2.23;78.39;96583.19;4951038;28;19918;-64
2022/02/07 13:28:18;;;;;;;;;;;3.70;74.10;;;2.24;78.64;96578.81;4951674;28;20671;-64
2022/02/07 13:30:46;;;;;;;;;;;3.80;74.00;;;2.24;78.30;96574.44;4936606;29;19918;-64
2022/02/07 13:33:12;;;;;;;;;;;3.90;73.80;;;2.26;79.00;96585.53;4952172;28;19925;-64
2022/02/07 13:35:42;;;;;;;;;;;4.00;73.90;;;2.25;78.71;96594.25;4952779;28;19918;-64
2022/02/07 13:38:07;;;;;;;;;;;3.80;74.20;;;2.23;79.12;96582.34;4948379;28;20491;-64
2022/02/07 13:40:38;;;;;;;;;;;3.90;74.10;;;2.24;79.31;96608.19;4964268;28;19973;-64
2022/02/07 13:43:04;;;;;;;;;;;3.90;74.50;;;2.25;79.21;96601.22;4931781;28;19978;-64
2022/02/07 13:45:31;;;;;;;;;;;3.90;73.90;;;2.26;78.87;96593.31;4931985;28;19926;-65
2022/02/07 13:47:58;;;;;;;;;;;3.90;74.00;;;2.24;79.22;96597.81;4939726;28;19922;-66
2022/02/07 13:50:30;;;;;;;;;;;3.90;74.30;;;2.25;79.55;96596.84;4951389;28;20378;-67
2022/02/07 13:53:02;;;;;;;;;;;3.80;74.90;;;2.26;79.79;96597.69;4935056;28;19925;-66
2022/02/07 13:55:38;;;;;;;;;;;3.90;74.60;;;2.25;79.93;96612.44;4935021;28;20296;-65
2022/02/07 13:58:07;;;;;;;;;;;3.90;74.90;;;2.24;79.43;96605.59;4952317;28;19948;-66